sensor_id;sensor_type;location;lat;lon;timestamp;pressure;altitude;pressure_sealevel;temperature;humidity
48077;BME280;33854;57.708;12.008;2022-10-19T00:01:12;102357.59;;;4.89;100.00
48077;BME280;33854;57.708;12.008;2022-10-19T00:03:38;102348.06;;;4.85;100.00
48077;BME280;33854;57.708;12.008;2022-10-19T00:06:25;102357.59;;;4.89;100.00
48077;BME280;33854;57.708;12.008;2022-10-19T00:08:52;102358.41;;;4.81;100.00
48077;BME280;33854;57.708;12.008;2022-10-19T00:11:18;102362.72;;;4.76;100.00
48077;BME280;33854;57.708;12.008;2022-10-19T00:13:43;102342.81;;;4.58;100.00
48077;BME280;33854;57.708;12.008;2022-10-19T00:16:12;102360.06;;;4.65;100.00
48077;BME280;33854;57.708;12.008;2022-10-19T00:18:38;102366.09;;;4.61;100.00
48077;BME280;33854;57.708;12.008;2022-10-19T00:21:09;102367.81;;;4.62;100.00
48077;BME280;33854;57.708;12.008;2022-10-19T00:23:35;102373.00;;;4.64;100.00
48077;BME280;33854;57.708;12.008;2022-10-19T00:26:00;102374.75;;;4.69;100.00
48077;BME280;33854;57.708;12.008;2022-10-19T00:28:27;102371.31;;;4.75;100.00
48077;BME280;33854;57.708;12.008;2022-10-19T00:30:52;102379.09;;;4.76;100.00
48077;BME280;33854;57.708;12.008;2022-10-19T00:33:18;102366.16;;;4.78;100.00
48077;BME280;33854;57.708;12.008;2022-10-19T00:35:50;102365.31;;;4.76;100.00
48077;BME280;33854;57.708;12.008;2022-10-19T00:38:20;102375.66;;;4.79;100.00
48077;BME280;33854;57.708;12.008;2022-10-19T00:40:46;102380.84;;;4.80;100.00
48077;BME280;33854;57.708;12.008;2022-10-19T00:43:13;102373.09;;;4.82;100.00
48077;BME280;33854;57.708;12.008;2022-10-19T00:45:39;102395.50;;;4.83;100.00
48077;BME280;33854;57.708;12.008;2022-10-19T00:48:05;102385.13;;;4.75;100.00
48077;BME280;33854;57.708;12.008;2022-10-19T00:50:30;102398.94;;;4.79;100.00
48077;BME280;33854;57.708;12.008;2022-10-19T00:52:56;102401.53;;;4.82;100.00
48077;BME280;33854;57.708;12.008;2022-10-19T00:55:23;102404.97;;;4.82;100.00
48077;BME280;33854;57.708;12.008;2022-10-19T00:57:48;102416.19;;;4.81;100.00
48077;BME280;33854;57.708;12.008;2022-10-19T01:00:14;102421.34;;;4.80;100.00
48077;BME280;33854;57.708;12.008;2022-10-19T01:02:39;102419.63;;;4.77;100.00
48077;BME280;33854;57.708;12.008;2022-10-19T01:05:05;102427.38;;;4.73;100.00
48077;BME280;33854;57.708;12.008;2022-10-19T01:07:31;102428.22;;;4.70;100.00
48077;BME280;33854;57.708;12.008;2022-10-19T01:09:58;102423.03;;;4.70;100.00
48077;BME280;33854;57.708;12.008;2022-10-19T01:20:32;102441.09;;;4.63;100.00
48077;BME280;33854;57.708;12.008;2022-10-19T01:34:28;102447.81;;;4.30;100.00
48077;BME280;33854;57.708;12.008;2022-10-19T01:39:54;102449.41;;;4.15;100.00
48077;BME280;33854;57.708;12.008;2022-10-19T01:42:43;102451.09;;;4.10;100.00
48077;BME280;33854;57.708;12.008;2022-10-19T01:47:56;102450.16;;;4.01;100.00
48077;BME280;33854;57.708;12.008;2022-10-19T01:50:35;102433.72;;;3.93;100.00
48077;BME280;33854;57.708;12.008;2022-10-19T01:53:04;102445.78;;;3.94;100.00
48077;BME280;33854;57.708;12.008;2022-10-19T01:55:31;102445.75;;;3.87;100.00
48077;BME280;33854;57.708;12.008;2022-10-19T01:58:01;102449.16;;;3.84;100.00
48077;BME280;33854;57.708;12.008;2022-10-19T02:00:28;102446.59;;;3.89;100.00
48077;BME280;33854;57.708;12.008;2022-10-19T02:02:57;102449.22;;;3.93;100.00
48077;BME280;33854;57.708;12.008;2022-10-19T02:05:27;102444.91;;;3.89;100.00
48077;BME280;33854;57.708;12.008;2022-10-19T02:07:58;102449.19;;;3.89;100.00
48077;BME280;33854;57.708;12.008;2022-10-19T02:10:26;102443.22;;;3.93;100.00
48077;BME280;33854;57.708;12.008;2022-10-19T02:12:53;102449.25;;;3.95;100.00
48077;BME280;33854;57.708;12.008;2022-10-19T02:15:21;102449.28;;;3.98;100.00
48077;BME280;33854;57.708;12.008;2022-10-19T02:17:50;102459.59;;;3.98;100.00
48077;BME280;33854;57.708;12.008;2022-10-19T02:20:18;102444.91;;;3.92;100.00
48077;BME280;33854;57.708;12.008;2022-10-19T02:22:44;102458.75;;;4.02;100.00
48077;BME280;33854;57.708;12.008;2022-10-19T02:25:10;102461.38;;;4.03;100.00
48077;BME280;33854;57.708;12.008;2022-10-19T02:27:37;102464.81;;;4.06;100.00
48077;BME280;33854;57.708;12.008;2022-10-19T02:30:09;102465.69;;;4.06;100.00
48077;BME280;33854;57.708;12.008;2022-10-19T02:32:35;102468.28;;;4.08;100.00
48077;BME280;33854;57.708;12.008;2022-10-19T02:35:00;102479.44;;;4.05;100.00
48077;BME280;33854;57.708;12.008;2022-10-19T02:37:26;102478.59;;;4.03;100.00
48077;BME280;33854;57.708;12.008;2022-10-19T02:39:51;102485.38;;;3.93;100.00
48077;BME280;33854;57.708;12.008;2022-10-19T02:42:38;102500.75;;;3.80;100.00
48077;BME280;33854;57.708;12.008;2022-10-19T02:45:11;102495.53;;;3.72;100.00
48077;BME280;33854;57.708;12.008;2022-10-19T02:47:44;102507.53;;;3.70;100.00
48077;BME280;33854;57.708;12.008;2022-10-19T02:50:12;102504.94;;;3.67;100.00
48077;BME280;33854;57.708;12.008;2022-10-19T02:52:39;102516.13;;;3.68;100.00
48077;BME280;33854;57.708;12.008;2022-10-19T02:55:06;102522.03;;;3.59;100.00
48077;BME280;33854;57.708;12.008;2022-10-19T02:57:32;102522.84;;;3.54;100.00
48077;BME280;33854;57.708;12.008;2022-10-19T02:59:57;102514.19;;;3.47;100.00
48077;BME280;33854;57.708;12.008;2022-10-19T03:02:23;102529.72;;;3.52;100.00
48077;BME280;33854;57.708;12.008;2022-10-19T03:04:49;102526.25;;;3.50;100.00
48077;BME280;33854;57.708;12.008;2022-10-19T03:07:16;102534.81;;;3.45;100.00
48077;BME280;33854;57.708;12.008;2022-10-19T03:09:43;102536.47;;;3.40;100.00
48077;BME280;33854;57.708;12.008;2022-10-19T03:12:09;102542.44;;;3.36;100.00
48077;BME280;33854;57.708;12.008;2022-10-19T03:14:34;102531.25;;;3.34;100.00
48077;BME280;33854;57.708;12.008;2022-10-19T03:17:00;102524.47;;;3.44;100.00
48077;BME280;33854;57.708;12.008;2022-10-19T03:19:26;102534.81;;;3.45;100.00
48077;BME280;33854;57.708;12.008;2022-10-19T03:21:51;102529.69;;;3.49;100.00
48077;BME280;33854;57.708;12.008;2022-10-19T03:24:16;102525.38;;;3.49;100.00
48077;BME280;33854;57.708;12.008;2022-10-19T03:26:42;102518.41;;;3.42;100.00
48077;BME280;33854;57.708;12.008;2022-10-19T03:29:07;102540.88;;;3.51;100.00
48077;BME280;33854;57.708;12.008;2022-10-19T03:31:33;102544.28;;;3.47;100.00
48077;BME280;33854;57.708;12.008;2022-10-19T03:33:58;102555.44;;;3.45;100.00
48077;BME280;33854;57.708;12.008;2022-10-19T03:36:32;102546.78;;;3.40;100.00
48077;BME280;33854;57.708;12.008;2022-10-19T03:39:00;102562.38;;;3.47;100.00
48077;BME280;33854;57.708;12.008;2022-10-19T03:41:28;102558.03;;;3.45;100.00
48077;BME280;33854;57.708;12.008;2022-10-19T03:43:55;102559.75;;;3.45;100.00
48077;BME280;33854;57.708;12.008;2022-10-19T03:46:20;102566.63;;;3.43;100.00
48077;BME280;33854;57.708;12.008;2022-10-19T03:48:47;102574.34;;;3.43;100.00
48077;BME280;33854;57.708;12.008;2022-10-19T03:51:16;102582.06;;;3.40;100.00
48077;BME280;33854;57.708;12.008;2022-10-19T03:53:42;102582.00;;;3.35;100.00
48077;BME280;33854;57.708;12.008;2022-10-19T03:58:38;102585.44;;;3.36;100.00
48077;BME280;33854;57.708;12.008;2022-10-19T04:01:19;102585.44;;;3.36;100.00
48077;BME280;33854;57.708;12.008;2022-10-19T04:03:44;102589.78;;;3.38;100.00
48077;BME280;33854;57.708;12.008;2022-10-19T04:06:13;102587.22;;;3.41;100.00
48077;BME280;33854;57.708;12.008;2022-10-19T04:08:39;102587.22;;;3.40;100.00
48077;BME280;33854;57.708;12.008;2022-10-19T04:11:08;102587.97;;;3.33;100.00
48077;BME280;33854;57.708;12.008;2022-10-19T04:13:35;102584.47;;;3.28;100.00
48077;BME280;33854;57.708;12.008;2022-10-19T04:16:01;102606.03;;;3.33;100.00
48077;BME280;33854;57.708;12.008;2022-10-19T04:18:27;102604.25;;;3.27;100.00
48077;BME280;33854;57.708;12.008;2022-10-19T04:21:01;102603.41;;;3.28;100.00
48077;BME280;33854;57.708;12.008;2022-10-19T04:23:34;102628.34;;;3.28;100.00
48077;BME280;33854;57.708;12.008;2022-10-19T04:26:02;102623.97;;;3.22;100.00
48077;BME280;33854;57.708;12.008;2022-10-19T04:28:27;102627.41;;;3.23;100.00
48077;BME280;33854;57.708;12.008;2022-10-19T04:30:53;102634.31;;;3.25;100.00
48077;BME280;33854;57.708;12.008;2022-10-19T04:33:18;102630.00;;;3.24;100.00
48077;BME280;33854;57.708;12.008;2022-10-19T04:35:44;102630.91;;;3.26;100.00
48077;BME280;33854;57.708;12.008;2022-10-19T04:38:09;102639.44;;;3.22;100.00
48077;BME280;33854;57.708;12.008;2022-10-19T04:40:35;102643.69;;;3.19;100.00
48077;BME280;33854;57.708;12.008;2022-10-19T04:43:01;102648.84;;;3.19;100.00
48077;BME280;33854;57.708;12.008;2022-10-19T04:45:27;102649.63;;;3.13;100.00
48077;BME280;33854;57.708;12.008;2022-10-19T04:47:53;102652.16;;;3.09;100.00
48077;BME280;33854;57.708;12.008;2022-10-19T04:50:23;102649.41;;;3.00;100.00
48077;BME280;33854;57.708;12.008;2022-10-19T04:52:49;102651.13;;;2.99;100.00
48077;BME280;33854;57.708;12.008;2022-10-19T04:55:14;102655.25;;;2.88;100.00
48077;BME280;33854;57.708;12.008;2022-10-19T04:57:40;102657.72;;;2.82;100.00
48077;BME280;33854;57.708;12.008;2022-10-19T05:00:05;102648.91;;;2.68;100.00
48077;BME280;33854;57.708;12.008;2022-10-19T05:02:31;102659.25;;;2.69;100.00
48077;BME280;33854;57.708;12.008;2022-10-19T05:04:57;102666.06;;;2.66;100.00
48077;BME280;33854;57.708;12.008;2022-10-19T05:07:22;102658.22;;;2.58;100.00
48077;BME280;33854;57.708;12.008;2022-10-19T05:09:47;102664.16;;;2.56;100.00
48077;BME280;33854;57.708;12.008;2022-10-19T05:12:13;102659.81;;;2.53;100.00
48077;BME280;33854;57.708;12.008;2022-10-19T05:14:38;102656.38;;;2.53;100.00
48077;BME280;33854;57.708;12.008;2022-10-19T05:17:04;102660.59;;;2.48;100.00
48077;BME280;33854;57.708;12.008;2022-10-19T05:19:29;102648.63;;;2.51;100.00
48077;BME280;33854;57.708;12.008;2022-10-19T05:21:54;102648.63;;;2.53;100.00
48077;BME280;33854;57.708;12.008;2022-10-19T05:24:20;102650.38;;;2.54;100.00
48077;BME280;33854;57.708;12.008;2022-10-19T05:26:45;102646.97;;;2.55;100.00
48077;BME280;33854;57.708;12.008;2022-10-19T05:29:12;102645.28;;;2.57;100.00
48077;BME280;33854;57.708;12.008;2022-10-19T05:31:37;102643.41;;;2.48;100.00
48077;BME280;33854;57.708;12.008;2022-10-19T05:34:03;102640.63;;;2.36;100.00
48077;BME280;33854;57.708;12.008;2022-10-19T05:36:36;102647.63;;;2.43;100.00
48077;BME280;33854;57.708;12.008;2022-10-19T05:39:05;102646.75;;;2.43;100.00
48077;BME280;33854;57.708;12.008;2022-10-19T05:41:31;102654.38;;;2.35;100.00
48077;BME280;33854;57.708;12.008;2022-10-19T05:43:58;102653.50;;;2.36;100.00
48077;BME280;33854;57.708;12.008;2022-10-19T05:46:26;102650.97;;;2.39;100.00
48077;BME280;33854;57.708;12.008;2022-10-19T05:48:52;102653.44;;;2.33;100.00
48077;BME280;33854;57.708;12.008;2022-10-19T05:51:20;102650.88;;;2.33;100.00
48077;BME280;33854;57.708;12.008;2022-10-19T05:53:46;102632.59;;;2.19;100.00
48077;BME280;33854;57.708;12.008;2022-10-19T05:56:14;102655.13;;;2.31;100.00
48077;BME280;33854;57.708;12.008;2022-10-19T05:58:40;102650.75;;;2.27;100.00
48077;BME280;33854;57.708;12.008;2022-10-19T06:01:05;102661.03;;;2.25;100.00
48077;BME280;33854;57.708;12.008;2022-10-19T06:03:32;102653.97;;;2.15;100.00
48077;BME280;33854;57.708;12.008;2022-10-19T06:05:57;102671.09;;;2.12;100.00
48077;BME280;33854;57.708;12.008;2022-10-19T06:08:24;102658.22;;;2.12;100.00
48077;BME280;33854;57.708;12.008;2022-10-19T06:10:50;102673.56;;;2.07;100.00
48077;BME280;33854;57.708;12.008;2022-10-19T06:13:17;102681.28;;;2.06;100.00
48077;BME280;33854;57.708;12.008;2022-10-19T06:15:43;102677.94;;;2.11;100.00
48077;BME280;33854;57.708;12.008;2022-10-19T06:18:10;102680.47;;;2.10;100.00
48077;BME280;33854;57.708;12.008;2022-10-19T06:20:38;102683.81;;;2.04;100.00
48077;BME280;33854;57.708;12.008;2022-10-19T06:23:05;102674.25;;;1.99;100.00
48077;BME280;33854;57.708;12.008;2022-10-19T06:25:32;102681.28;;;2.07;100.00
48077;BME280;33854;57.708;12.008;2022-10-19T06:27:58;102693.41;;;2.11;100.00
48077;BME280;33854;57.708;12.008;2022-10-19T06:30:24;102690.84;;;2.13;100.00
48077;BME280;33854;57.708;12.008;2022-10-19T06:32:49;102699.44;;;2.12;100.00
48077;BME280;33854;57.708;12.008;2022-10-19T06:35:14;102700.19;;;2.08;100.00
48077;BME280;33854;57.708;12.008;2022-10-19T06:37:41;102697.53;;;2.03;100.00
48077;BME280;33854;57.708;12.008;2022-10-19T06:40:07;102703.78;;;2.14;100.00
48077;BME280;33854;57.708;12.008;2022-10-19T06:42:33;102704.78;;;2.22;100.00
48077;BME280;33854;57.708;12.008;2022-10-19T06:44:58;102695.53;;;2.32;100.00
48077;BME280;33854;57.708;12.008;2022-10-19T06:47:24;102692.19;;;2.38;100.00
48077;BME280;33854;57.708;12.008;2022-10-19T06:49:58;102697.41;;;2.41;100.00
48077;BME280;33854;57.708;12.008;2022-10-19T06:52:23;102705.13;;;2.41;100.00
48077;BME280;33854;57.708;12.008;2022-10-19T06:54:49;102711.19;;;2.44;100.00
48077;BME280;33854;57.708;12.008;2022-10-19T06:57:14;102705.19;;;2.44;100.00
48077;BME280;33854;57.708;12.008;2022-10-19T06:59:39;102703.41;;;2.41;100.00
48077;BME280;33854;57.708;12.008;2022-10-19T07:02:05;102710.34;;;2.44;100.00
48077;BME280;33854;57.708;12.008;2022-10-19T07:04:30;102714.75;;;2.49;100.00
48077;BME280;33854;57.708;12.008;2022-10-19T07:06:56;102719.09;;;2.53;100.00
48077;BME280;33854;57.708;12.008;2022-10-19T07:09:21;102717.41;;;2.54;100.00
48077;BME280;33854;57.708;12.008;2022-10-19T07:11:47;102718.28;;;2.54;100.00
48077;BME280;33854;57.708;12.008;2022-10-19T07:14:12;102720.25;;;2.69;100.00
48077;BME280;33854;57.708;12.008;2022-10-19T07:16:38;102717.75;;;2.72;100.00
48077;BME280;33854;57.708;12.008;2022-10-19T07:19:03;102723.81;;;2.75;100.00
48077;BME280;33854;57.708;12.008;2022-10-19T07:21:29;102719.56;;;2.79;100.00
48077;BME280;33854;57.708;12.008;2022-10-19T07:23:54;102704.03;;;2.76;100.00
48077;BME280;33854;57.708;12.008;2022-10-19T07:26:22;102723.13;;;2.87;100.00
48077;BME280;33854;57.708;12.008;2022-10-19T07:28:51;102726.75;;;2.97;100.00
48077;BME280;33854;57.708;12.008;2022-10-19T07:31:20;102717.41;;;3.03;100.00
48077;BME280;33854;57.708;12.008;2022-10-19T07:33:50;102723.50;;;3.08;100.00
48077;BME280;33854;57.708;12.008;2022-10-19T07:36:15;102726.19;;;3.13;100.00
48077;BME280;33854;57.708;12.008;2022-10-19T07:38:41;102726.28;;;3.20;100.00
48077;BME280;33854;57.708;12.008;2022-10-19T07:41:09;102728.09;;;3.27;100.00
48077;BME280;33854;57.708;12.008;2022-10-19T07:43:37;102711.78;;;3.28;100.00
48077;BME280;33854;57.708;12.008;2022-10-19T07:46:05;102724.88;;;3.42;100.00
48077;BME280;33854;57.708;12.008;2022-10-19T07:48:32;102718.00;;;3.41;100.00
48077;BME280;33854;57.708;12.008;2022-10-19T07:50:59;102718.19;;;3.55;100.00
48077;BME280;33854;57.708;12.008;2022-10-19T07:53:25;102725.22;;;3.63;100.00
48077;BME280;33854;57.708;12.008;2022-10-19T07:55:50;102727.84;;;3.68;100.00
48077;BME280;33854;57.708;12.008;2022-10-19T07:58:16;102729.69;;;3.76;100.00
48077;BME280;33854;57.708;12.008;2022-10-19T08:00:41;102724.53;;;3.76;100.00
48077;BME280;33854;57.708;12.008;2022-10-19T08:03:07;102737.50;;;3.81;100.00
48077;BME280;33854;57.708;12.008;2022-10-19T08:05:32;102741.03;;;3.86;100.00
48077;BME280;33854;57.708;12.008;2022-10-19T08:07:58;102750.56;;;3.90;100.00
48077;BME280;33854;57.708;12.008;2022-10-19T08:10:23;102754.09;;;3.98;100.00
48077;BME280;33854;57.708;12.008;2022-10-19T08:12:49;102757.59;;;4.03;100.00
48077;BME280;33854;57.708;12.008;2022-10-19T08:15:14;102757.69;;;4.09;100.00
48077;BME280;33854;57.708;12.008;2022-10-19T08:17:40;102767.22;;;4.15;100.00
48077;BME280;33854;57.708;12.008;2022-10-19T08:20:06;102768.16;;;4.20;100.00
48077;BME280;33854;57.708;12.008;2022-10-19T08:22:32;102784.59;;;4.26;100.00
48077;BME280;33854;57.708;12.008;2022-10-19T08:24:57;102783.81;;;4.32;100.00
48077;BME280;33854;57.708;12.008;2022-10-19T08:27:23;102787.31;;;4.35;100.00
48077;BME280;33854;57.708;12.008;2022-10-19T08:29:48;102808.94;;;4.43;100.00
48077;BME280;33854;57.708;12.008;2022-10-19T08:32:15;102821.13;;;4.50;100.00
48077;BME280;33854;57.708;12.008;2022-10-19T08:34:40;102827.13;;;4.49;100.00
48077;BME280;33854;57.708;12.008;2022-10-19T08:37:06;102853.94;;;4.56;100.00
48077;BME280;33854;57.708;12.008;2022-10-19T08:39:31;102858.38;;;4.68;100.00
48077;BME280;33854;57.708;12.008;2022-10-19T08:42:07;102878.28;;;4.75;100.00
48077;BME280;33854;57.708;12.008;2022-10-19T08:49:54;102953.53;;;4.93;100.00
48077;BME280;33854;57.708;12.008;2022-10-19T08:52:29;102977.78;;;5.01;100.00
48077;BME280;33854;57.708;12.008;2022-10-19T08:55:07;102995.16;;;5.09;100.00
48077;BME280;33854;57.708;12.008;2022-10-19T08:57:46;103028.06;;;5.21;100.00
48077;BME280;33854;57.708;12.008;2022-10-19T09:00:43;103046.28;;;5.29;100.00
48077;BME280;33854;57.708;12.008;2022-10-19T09:08:33;103136.38;;;5.52;100.00
48077;BME280;33854;57.708;12.008;2022-10-19T09:11:02;103145.09;;;5.59;100.00
48077;BME280;33854;57.708;12.008;2022-10-19T09:13:39;103168.50;;;5.66;100.00
48077;BME280;33854;57.708;12.008;2022-10-19T09:16:09;103187.63;;;5.78;100.00
48077;BME280;33854;57.708;12.008;2022-10-19T09:18:35;103204.09;;;5.81;100.00
48077;BME280;33854;57.708;12.008;2022-10-19T09:21:08;103217.19;;;5.89;100.00
48077;BME280;33854;57.708;12.008;2022-10-19T09:24:04;103231.13;;;5.98;100.00
48077;BME280;33854;57.708;12.008;2022-10-19T09:26:35;103254.50;;;6.03;100.00
48077;BME280;33854;57.708;12.008;2022-10-19T09:29:13;103274.47;;;6.10;100.00
48077;BME280;33854;57.708;12.008;2022-10-19T09:31:41;103288.38;;;6.15;100.00
48077;BME280;33854;57.708;12.008;2022-10-19T09:34:14;103310.94;;;6.22;100.00
48077;BME280;33854;57.708;12.008;2022-10-19T09:36:46;103333.53;;;6.32;100.00
48077;BME280;33854;57.708;12.008;2022-10-19T09:39:15;103349.19;;;6.38;100.00
48077;BME280;33854;57.708;12.008;2022-10-19T09:41:57;103361.38;;;6.45;100.00
48077;BME280;33854;57.708;12.008;2022-10-19T09:44:23;103371.84;;;6.51;100.00
48077;BME280;33854;57.708;12.008;2022-10-19T09:49:48;103392.72;;;6.63;100.00
48077;BME280;33854;57.708;12.008;2022-10-19T09:52:40;103411.94;;;6.77;100.00
48077;BME280;33854;57.708;12.008;2022-10-19T09:57:46;103425.94;;;6.90;100.00
48077;BME280;33854;57.708;12.008;2022-10-19T10:00:22;103443.28;;;6.93;100.00
48077;BME280;33854;57.708;12.008;2022-10-19T10:02:52;103461.50;;;6.96;100.00
48077;BME280;33854;57.708;12.008;2022-10-19T10:05:19;103466.75;;;7.03;100.00
48077;BME280;33854;57.708;12.008;2022-10-19T10:07:53;103475.50;;;7.10;100.00
48077;BME280;33854;57.708;12.008;2022-10-19T10:10:22;103482.50;;;7.15;100.00
48077;BME280;33854;57.708;12.008;2022-10-19T10:12:48;103491.25;;;7.23;100.00
48077;BME280;33854;57.708;12.008;2022-10-19T10:15:20;103510.41;;;7.31;100.00
48077;BME280;33854;57.708;12.008;2022-10-19T10:17:47;103532.97;;;7.37;100.00
48077;BME280;33854;57.708;12.008;2022-10-19T10:20:28;103546.06;;;7.43;100.00
48077;BME280;33854;57.708;12.008;2022-10-19T10:23:01;103565.13;;;7.45;100.00
48077;BME280;33854;57.708;12.008;2022-10-19T10:25:30;103592.88;;;7.49;100.00
48077;BME280;33854;57.708;12.008;2022-10-19T10:30:35;103718.59;;;7.57;100.00
48077;BME280;33854;57.708;12.008;2022-10-19T10:33:01;103742.13;;;7.69;100.00
48077;BME280;33854;57.708;12.008;2022-10-19T10:35:33;103758.75;;;7.77;100.00
48077;BME280;33854;57.708;12.008;2022-10-19T10:38:08;103765.78;;;7.86;100.00
48077;BME280;33854;57.708;12.008;2022-10-19T10:40:37;103771.06;;;7.93;100.00
48077;BME280;33854;57.708;12.008;2022-10-19T10:43:11;103776.38;;;7.99;100.00
48077;BME280;33854;57.708;12.008;2022-10-19T10:45:41;103789.41;;;8.02;100.00
48077;BME280;33854;57.708;12.008;2022-10-19T10:48:54;103798.13;;;8.08;100.00
48077;BME280;33854;57.708;12.008;2022-10-19T10:51:29;103825.13;;;8.16;100.00
48077;BME280;33854;57.708;12.008;2022-10-19T10:54:13;103837.38;;;8.23;100.00
48077;BME280;33854;57.708;12.008;2022-10-19T10:56:42;103834.03;;;8.31;100.00
48077;BME280;33854;57.708;12.008;2022-10-19T10:59:16;103842.75;;;8.36;100.00
48077;BME280;33854;57.708;12.008;2022-10-19T11:04:28;103842.81;;;8.39;100.00
48077;BME280;33854;57.708;12.008;2022-10-19T11:07:00;103831.66;;;8.51;100.00
48077;BME280;33854;57.708;12.008;2022-10-19T11:09:42;103790.91;;;8.53;100.00
48077;BME280;33854;57.708;12.008;2022-10-19T11:12:12;103710.19;;;8.50;100.00
48077;BME280;33854;57.708;12.008;2022-10-19T11:14:45;103634.75;;;8.54;100.00
48077;BME280;33854;57.708;12.008;2022-10-19T11:17:17;103600.09;;;8.62;100.00
48077;BME280;33854;57.708;12.008;2022-10-19T11:19:45;103570.59;;;8.64;100.00
48077;BME280;33854;57.708;12.008;2022-10-19T11:22:39;103545.53;;;8.77;100.00
48077;BME280;33854;57.708;12.008;2022-10-19T11:25:35;103506.53;;;8.89;100.00
48077;BME280;33854;57.708;12.008;2022-10-19T11:31:05;103316.41;;;8.84;100.00
48077;BME280;33854;57.708;12.008;2022-10-19T11:44:27;102061.28;;;10.20;100.00
48077;BME280;33854;57.708;12.008;2022-10-19T11:49:54;102209.09;;;10.97;100.00
48077;BME280;33854;57.708;12.008;2022-10-19T11:52:44;102234.41;;;11.30;100.00
48077;BME280;33854;57.708;12.008;2022-10-19T11:58:28;102451.16;;;12.11;100.00
48077;BME280;33854;57.708;12.008;2022-10-19T12:01:26;102460.56;;;12.53;100.00
48077;BME280;33854;57.708;12.008;2022-10-19T12:07:25;102466.53;;;13.77;100.00
48077;BME280;33854;57.708;12.008;2022-10-19T12:12:34;102487.34;;;13.83;100.00
48077;BME280;33854;57.708;12.008;2022-10-19T12:17:37;102484.47;;;14.17;100.00
48077;BME280;33854;57.708;12.008;2022-10-19T12:20:13;102480.44;;;14.33;100.00
48077;BME280;33854;57.708;12.008;2022-10-19T12:22:41;102495.47;;;14.28;100.00
48077;BME280;33854;57.708;12.008;2022-10-19T12:25:12;102498.41;;;14.19;100.00
48077;BME280;33854;57.708;12.008;2022-10-19T12:27:39;102484.88;;;14.31;100.00
48077;BME280;33854;57.708;12.008;2022-10-19T12:30:11;102483.38;;;14.75;100.00
48077;BME280;33854;57.708;12.008;2022-10-19T12:38:24;102497.19;;;14.29;100.00
48077;BME280;33854;57.708;12.008;2022-10-19T12:41:02;102495.00;;;14.15;100.00
48077;BME280;33854;57.708;12.008;2022-10-19T12:43:40;102473.72;;;14.99;100.00
48077;BME280;33854;57.708;12.008;2022-10-19T12:46:19;102468.31;;;15.26;100.00
48077;BME280;33854;57.708;12.008;2022-10-19T12:49:50;102483.38;;;14.98;100.00
48077;BME280;33854;57.708;12.008;2022-10-19T12:52:00;102476.91;;;15.53;100.00
48077;BME280;33854;57.708;12.008;2022-10-19T12:54:28;102475.56;;;15.65;100.00
48077;BME280;33854;57.708;12.008;2022-10-19T12:56:55;102484.84;;;15.75;100.00
48077;BME280;33854;57.708;12.008;2022-10-19T12:59:26;102470.53;;;16.24;100.00
48077;BME280;33854;57.708;12.008;2022-10-19T13:01:53;102482.69;;;15.84;100.00
48077;BME280;33854;57.708;12.008;2022-10-19T13:04:23;102458.88;;;16.70;100.00
48077;BME280;33854;57.708;12.008;2022-10-19T13:09:32;102463.50;;;17.22;100.00
48077;BME280;33854;57.708;12.008;2022-10-19T13:14:49;102489.44;;;15.91;100.00
48077;BME280;33854;57.708;12.008;2022-10-19T13:27:44;102450.03;;;18.18;100.00
48077;BME280;33854;57.708;12.008;2022-10-19T13:38:27;102482.13;;;17.75;100.00
48077;BME280;33854;57.708;12.008;2022-10-19T13:42:11;102482.78;;;17.97;100.00
48077;BME280;33854;57.708;12.008;2022-10-19T13:49:26;102452.50;;;20.14;100.00
48077;BME280;33854;57.708;12.008;2022-10-19T14:00:24;102456.22;;;19.96;91.46
48077;BME280;33854;57.708;12.008;2022-10-19T14:11:27;102447.00;;;20.61;89.03
48077;BME280;33854;57.708;12.008;2022-10-19T14:16:51;102466.41;;;19.25;86.80
48077;BME280;33854;57.708;12.008;2022-10-19T14:19:42;102475.59;;;19.02;92.92
48077;BME280;33854;57.708;12.008;2022-10-19T14:24:44;102446.63;;;20.09;91.37
48077;BME280;33854;57.708;12.008;2022-10-19T14:27:16;102436.50;;;20.59;88.99
48077;BME280;33854;57.708;12.008;2022-10-19T14:29:46;102437.91;;;21.07;87.37
48077;BME280;33854;57.708;12.008;2022-10-19T14:32:12;102434.88;;;21.27;82.88
48077;BME280;33854;57.708;12.008;2022-10-19T14:34:40;102428.19;;;21.48;83.41
48077;BME280;33854;57.708;12.008;2022-10-19T14:37:14;102448.28;;;21.12;83.01
48077;BME280;33854;57.708;12.008;2022-10-19T14:39:40;102445.88;;;20.93;84.38
48077;BME280;33854;57.708;12.008;2022-10-19T14:42:08;102449.94;;;20.42;89.54
48077;BME280;33854;57.708;12.008;2022-10-19T14:44:41;102455.41;;;20.09;90.20
48077;BME280;33854;57.708;12.008;2022-10-19T14:49:46;102460.53;;;19.82;87.25
48077;BME280;33854;57.708;12.008;2022-10-19T14:52:19;102447.16;;;19.84;88.94
48077;BME280;33854;57.708;12.008;2022-10-19T14:54:49;102437.91;;;19.61;91.56
48077;BME280;33854;57.708;12.008;2022-10-19T14:59:55;102436.63;;;19.37;90.96
48077;BME280;33854;57.708;12.008;2022-10-19T15:02:27;102456.88;;;18.90;92.37
48077;BME280;33854;57.708;12.008;2022-10-19T15:04:57;102441.47;;;18.65;91.75
48077;BME280;33854;57.708;12.008;2022-10-19T15:09:58;102441.94;;;18.04;98.60
48077;BME280;33854;57.708;12.008;2022-10-19T15:12:32;102448.81;;;16.98;100.00